Hovedside
METAR-TAF:

METAR-TAF

Lufthavner :

Uruguaiana, Rio Grande do Sul, Brasil

breddegrad: 29-47S, lengdegrad: 057-02W, høyde over havet: 74 m

METAR: fraværende

Tid: 19:41 (22:41 UTC)

Varsel

Denne rapporten ble laget for 7 timer og 41 minutter siden, klokken 15:00 UTC
Varsel gyldig fra 25. klokken 18 UTC til 26. klokken 06 UTC
Vind 13 kt fra Øst-sørøst
Sikt 10 km eller mer
Få skyer i en høyde av 3000 ft
Sannsynlighet 40%
fra 25. klokken 18 UTC til 25. klokken 20 UTC
Vind 14 kt fra Sørøst med vindkast opp mot 24 kt

TAF: SBUG 251500Z 2518/2606 12013KT 9999 FEW030 TX13/2518Z TN07/2606Z PROB40 2518/2520 13014G24KT RMK PCO

Værobservasjoner og værvarsel for over 4000 flyplasser (METAR- og TAF-rapporter).

Tilgjengelige stasjoner er representert av de røde og gule prikkene på kartet.

Hold musepekeren over prikken for å se navnet på stasjonen.

Klikk så for å se værobservasjoner og -varsler.

For å forandre kartet kan du klikke på den grønne knappen med svart kryss for å zoome inn, på den grønne knappen med strek for å zoome ut, eller på de grønne pilene for å se tilstøtende kart.


METAR-TAF: